Terminal Aerodrome Forecast
Issued by NWS St Louis, MO

Home | Current Version | Previous Version | Text Only | Print | Product List | Glossary On
Versions: 1 2 3 4 5 6 7 8 9 10 11 12 13 14 15 16 17 18 19 20 21 22 23 24 25 26 27 28 29 30 31 32 33 34 35 36
952
FTUS43 KLSX 301527 AAC
TAFSTL
TAF AMD
KSTL 301527Z 3015/0118 14014G22KT P6SM BKN015 OVC030
      TEMPO 3015/3017 3SM -RA BR BKN009
     FM301800 18012KT P6SM SCT015 BKN040
     FM010000 22007KT P6SM VCTS SCT040CB
     FM010300 27005KT P6SM SCT040
     FM011500 30012G20KT P6SM SCT050=

USA.gov is the U.S. government's official web portal to all federal, state and local government web resources and services.